createdAt,value
2022-11-23T00:00:18.535Z,2.70
2022-11-23T00:03:06.980Z,3.15
2022-11-23T00:05:34.444Z,2.97
2022-11-23T00:08:03.029Z,1.90
2022-11-23T00:10:30.768Z,2.30
2022-11-23T00:13:00.101Z,1.00
2022-11-23T00:15:27.260Z,1.10
2022-11-23T00:17:54.505Z,0.80
2022-11-23T00:20:21.415Z,1.05
2022-11-23T00:22:48.632Z,0.80
2022-11-23T00:25:17.301Z,0.80
2022-11-23T00:30:12.324Z,0.77
2022-11-23T00:32:39.561Z,0.60
2022-11-23T00:35:06.937Z,0.43
2022-11-23T00:37:34.176Z,0.75
2022-11-23T00:40:01.060Z,0.75
2022-11-23T00:42:33.758Z,0.60
2022-11-23T00:45:04.048Z,0.80
2022-11-23T00:47:31.620Z,0.80
2022-11-23T00:49:58.582Z,0.60
2022-11-23T00:52:25.848Z,0.70
2022-11-23T00:54:52.729Z,0.70
2022-11-23T00:57:19.932Z,0.68
2022-11-23T00:59:48.125Z,0.85
2022-11-23T01:02:15.383Z,0.90
2022-11-23T01:04:42.942Z,0.90
2022-11-23T01:07:10.219Z,0.82
2022-11-23T01:09:37.178Z,1.10
2022-11-23T01:12:04.679Z,1.20
2022-11-23T01:14:31.644Z,1.52
2022-11-23T01:17:00.307Z,1.38
2022-11-23T01:19:27.313Z,1.70
2022-11-23T01:21:54.585Z,1.52
2022-11-23T01:24:22.713Z,1.60
2022-11-23T01:26:51.492Z,1.50
2022-11-23T01:29:18.597Z,1.58
2022-11-23T01:31:46.988Z,1.58
2022-11-23T01:34:16.298Z,1.40
2022-11-23T01:36:44.034Z,1.77
2022-11-23T01:39:11.760Z,1.95
2022-11-23T01:41:41.249Z,1.80
2022-11-23T01:44:29.870Z,1.73
2022-11-23T01:47:00.154Z,1.52
2022-11-23T01:49:33.735Z,1.80
2022-11-23T01:52:06.522Z,1.55
2022-11-23T01:54:38.516Z,1.70
2022-11-23T01:57:11.658Z,1.52
2022-11-23T01:59:39.040Z,1.52
2022-11-23T02:02:06.568Z,1.75
2022-11-23T02:04:40.854Z,2.22
2022-11-23T02:07:09.479Z,1.63
2022-11-23T02:09:37.359Z,1.70
2022-11-23T02:12:10.642Z,1.97
2022-11-23T02:14:38.249Z,1.80
2022-11-23T02:17:05.518Z,1.77
2022-11-23T02:19:45.001Z,1.83
2022-11-23T02:22:20.204Z,1.85
2022-11-23T02:24:52.721Z,1.73
2022-11-23T02:27:22.731Z,1.70
2022-11-23T02:29:50.683Z,1.63
2022-11-23T02:32:20.400Z,2.13
2022-11-23T02:34:47.539Z,1.55
2022-11-23T02:37:14.773Z,1.98
2022-11-23T02:39:45.717Z,1.70
2022-11-23T02:42:12.965Z,1.70
2022-11-23T02:44:49.727Z,1.65
2022-11-23T02:47:17.071Z,1.85
2022-11-23T02:49:47.246Z,1.33
2022-11-23T02:52:14.603Z,1.75
2022-11-23T02:54:41.875Z,1.75
2022-11-23T02:57:09.739Z,1.50
2022-11-23T02:59:37.071Z,1.50
2022-11-23T03:02:06.250Z,1.80
2022-11-23T03:04:33.198Z,1.80
2022-11-23T03:07:00.578Z,2.88
2022-11-23T03:09:28.301Z,2.63
2022-11-23T03:11:55.821Z,2.50
2022-11-23T03:14:22.822Z,2.10
2022-11-23T03:16:50.002Z,2.28
2022-11-23T03:19:18.415Z,2.78
2022-11-23T03:21:45.600Z,2.50
2022-11-23T03:24:12.423Z,2.88
2022-11-23T03:26:39.667Z,2.20
2022-11-23T03:29:06.624Z,2.30
2022-11-23T03:31:33.719Z,1.80
2022-11-23T03:34:00.879Z,1.92
2022-11-23T03:36:29.609Z,2.42
2022-11-23T03:38:56.615Z,2.17
2022-11-23T03:41:23.756Z,3.80
2022-11-23T03:43:50.590Z,3.38
2022-11-23T03:46:18.066Z,3.17
2022-11-23T03:48:44.943Z,2.97
2022-11-23T03:51:12.258Z,2.90
2022-11-23T03:53:40.549Z,2.28
2022-11-23T03:56:08.295Z,2.50
2022-11-23T03:58:35.275Z,3.03
2022-11-23T04:01:02.504Z,3.83
2022-11-23T04:03:29.607Z,3.47
2022-11-23T04:05:56.888Z,2.60
2022-11-23T04:08:23.798Z,2.55
2022-11-23T04:10:52.304Z,2.47
2022-11-23T04:13:19.100Z,1.90
2022-11-23T04:15:46.203Z,1.80
2022-11-23T04:18:13.112Z,1.80
2022-11-23T04:20:40.275Z,1.85
2022-11-23T04:23:12.887Z,1.50
2022-11-23T04:25:40.854Z,2.10
2022-11-23T04:28:09.214Z,2.22
2022-11-23T04:30:36.329Z,2.05
2022-11-23T04:33:03.263Z,1.80
2022-11-23T04:35:30.637Z,2.05
2022-11-23T04:37:57.617Z,1.70
2022-11-23T04:40:25.210Z,2.38
2022-11-23T04:42:53.832Z,2.20
2022-11-23T04:45:25.682Z,2.80
2022-11-23T04:50:19.707Z,2.90
2022-11-23T04:52:46.755Z,3.30
2022-11-23T04:55:13.956Z,2.65
2022-11-23T04:57:40.857Z,3.13
2022-11-23T05:00:09.420Z,3.17
2022-11-23T05:02:38.189Z,2.65
2022-11-23T05:05:06.230Z,2.40
2022-11-23T05:07:33.269Z,2.20
2022-11-23T05:10:00.484Z,2.70
2022-11-23T05:12:27.387Z,3.30
2022-11-23T05:14:54.686Z,2.55
2022-11-23T05:17:21.653Z,2.50
2022-11-23T05:19:50.188Z,2.17
2022-11-23T05:22:17.017Z,2.60
2022-11-23T05:24:44.273Z,2.33
2022-11-23T05:27:11.269Z,2.05
2022-11-23T05:29:39.245Z,2.05
2022-11-23T05:32:06.475Z,2.22
2022-11-23T05:34:34.165Z,2.22
2022-11-23T05:37:02.543Z,2.60
2022-11-23T05:39:30.067Z,3.47
2022-11-23T05:41:57.220Z,4.25
2022-11-23T05:44:24.531Z,3.15
2022-11-23T05:46:51.319Z,3.67
2022-11-23T05:49:18.518Z,6.95
2022-11-23T05:51:45.447Z,4.13
2022-11-23T05:54:14.129Z,2.92
2022-11-23T05:56:41.129Z,3.30
2022-11-23T05:59:08.421Z,4.03
2022-11-23T06:01:35.342Z,5.80
2022-11-23T06:04:02.636Z,5.78
2022-11-23T06:06:29.565Z,6.18
2022-11-23T06:08:56.792Z,5.53
2022-11-23T06:11:25.067Z,5.10
2022-11-23T06:13:52.390Z,4.53
2022-11-23T06:16:21.748Z,3.28
2022-11-23T06:18:48.979Z,3.70
2022-11-23T06:21:15.960Z,4.45
2022-11-23T06:23:43.521Z,2.97
2022-11-23T06:26:10.541Z,2.88
2022-11-23T06:28:39.600Z,3.05
2022-11-23T06:31:07.247Z,3.67
2022-11-23T06:33:35.627Z,4.20
2022-11-23T06:36:03.870Z,4.07
2022-11-23T06:38:31.379Z,4.15
2022-11-23T06:40:58.976Z,3.60
2022-11-23T06:43:26.229Z,3.65
2022-11-23T06:45:55.348Z,5.75
2022-11-23T06:48:23.386Z,5.05
2022-11-23T06:50:50.636Z,4.03
2022-11-23T06:53:17.967Z,3.70
2022-11-23T06:55:45.139Z,3.90
2022-11-23T06:58:12.550Z,4.13
2022-11-23T07:00:39.512Z,3.03
2022-11-23T07:03:18.593Z,3.47
2022-11-23T07:05:45.859Z,3.40
2022-11-23T07:08:13.086Z,3.40
2022-11-23T07:10:39.980Z,4.00
2022-11-23T07:13:08.712Z,3.80
2022-11-23T07:15:36.388Z,3.65
2022-11-23T07:18:04.169Z,2.70
2022-11-23T07:20:32.937Z,2.92
2022-11-23T07:23:01.505Z,3.55
2022-11-23T07:25:29.002Z,3.00
2022-11-23T07:27:56.977Z,3.25
2022-11-23T07:30:27.976Z,3.42
2022-11-23T07:33:00.235Z,3.60
2022-11-23T07:35:27.730Z,3.10
2022-11-23T07:37:56.708Z,3.50
2022-11-23T07:40:26.589Z,3.80
2022-11-23T07:42:58.905Z,3.00
2022-11-23T07:45:25.866Z,3.63
2022-11-23T07:47:58.373Z,3.90
2022-11-23T07:50:25.490Z,4.45
2022-11-23T07:52:52.809Z,4.70
2022-11-23T07:55:21.354Z,5.35
2022-11-23T07:57:52.497Z,5.32
2022-11-23T08:00:23.333Z,3.92
2022-11-23T08:03:19.535Z,3.80
2022-11-23T08:05:38.294Z,3.10
2022-11-23T08:08:05.680Z,3.60
2022-11-23T08:10:36.644Z,3.05
2022-11-23T08:13:07.792Z,3.35
2022-11-23T08:15:36.275Z,3.05
2022-11-23T08:18:04.476Z,2.80
2022-11-23T08:20:31.805Z,3.17
2022-11-23T08:22:59.532Z,3.13
2022-11-23T08:25:28.252Z,3.17
2022-11-23T08:27:57.812Z,3.50
2022-11-23T08:30:25.709Z,3.08
2022-11-23T08:32:53.139Z,2.65
2022-11-23T08:35:20.609Z,2.80
2022-11-23T08:37:48.250Z,2.60
2022-11-23T08:40:17.440Z,2.63
2022-11-23T08:42:48.713Z,2.75
2022-11-23T08:45:17.921Z,2.50
2022-11-23T08:47:48.403Z,2.53
2022-11-23T08:50:15.539Z,2.60
2022-11-23T08:52:42.855Z,2.38
2022-11-23T08:55:10.452Z,3.08
2022-11-23T08:57:37.708Z,2.20
2022-11-23T09:00:05.779Z,2.30
2022-11-23T09:02:34.516Z,2.40
2022-11-23T09:05:01.713Z,2.70
2022-11-23T09:07:29.422Z,3.40
2022-11-23T09:09:56.405Z,3.00
2022-11-23T09:12:23.560Z,3.30
2022-11-23T09:14:50.527Z,3.30
2022-11-23T09:17:17.778Z,2.97
2022-11-23T09:19:46.054Z,3.15
2022-11-23T09:22:13.253Z,3.33
2022-11-23T09:24:40.204Z,3.38
2022-11-23T09:27:10.281Z,4.80
2022-11-23T09:29:37.131Z,4.18
2022-11-23T09:32:04.654Z,4.70
2022-11-23T09:34:32.110Z,4.78
2022-11-23T09:37:00.791Z,4.47
2022-11-23T09:39:27.865Z,4.15
2022-11-23T09:42:16.842Z,4.07
2022-11-23T09:45:02.239Z,4.85
2022-11-23T09:47:46.159Z,5.13
2022-11-23T09:50:17.861Z,5.15
2022-11-23T09:52:50.259Z,5.35
2022-11-23T09:55:24.284Z,4.38
2022-11-23T09:57:56.704Z,4.68
2022-11-23T10:00:24.055Z,4.25
2022-11-23T10:02:51.300Z,4.38
2022-11-23T10:05:23.396Z,4.70
2022-11-23T10:08:04.575Z,4.53
2022-11-23T10:10:41.596Z,3.88
2022-11-23T10:13:34.496Z,3.78
2022-11-23T10:16:13.916Z,3.55
2022-11-23T10:18:50.602Z,3.53
2022-11-23T10:21:25.748Z,4.03
2022-11-23T10:23:55.850Z,3.78
2022-11-23T10:26:29.598Z,3.80
2022-11-23T10:29:02.858Z,7.18
2022-11-23T10:31:30.581Z,4.75
2022-11-23T10:34:05.608Z,9.40
2022-11-23T10:36:35.444Z,5.30
2022-11-23T10:39:21.473Z,3.17
2022-11-23T10:41:49.249Z,2.80
2022-11-23T10:44:28.906Z,4.83
2022-11-23T10:46:56.342Z,3.13
2022-11-23T10:49:26.140Z,2.60
2022-11-23T10:51:55.493Z,2.42
2022-11-23T10:54:27.812Z,3.20
2022-11-23T10:56:56.206Z,2.25
2022-11-23T10:59:31.442Z,2.50
2022-11-23T11:02:13.424Z,2.75
2022-11-23T11:04:40.650Z,2.38
2022-11-23T11:07:19.471Z,2.85
2022-11-23T11:09:51.314Z,3.13
2022-11-23T11:12:18.854Z,2.60
2022-11-23T11:15:11.391Z,2.47
2022-11-23T11:17:41.683Z,2.95
2022-11-23T11:20:31.594Z,2.85
2022-11-23T11:23:00.643Z,2.20
2022-11-23T11:25:32.597Z,3.35
2022-11-23T11:28:00.647Z,2.80
2022-11-23T11:30:36.353Z,2.78
2022-11-23T11:33:10.568Z,3.25
2022-11-23T11:35:42.299Z,3.15
2022-11-23T11:38:13.284Z,3.92
2022-11-23T11:40:46.225Z,3.13
2022-11-23T11:43:19.114Z,3.70
2022-11-23T11:46:13.225Z,4.03
2022-11-23T11:48:39.689Z,3.10
2022-11-23T11:51:10.850Z,3.20
2022-11-23T11:53:46.868Z,3.47
2022-11-23T11:56:29.274Z,2.85
2022-11-23T11:59:02.641Z,2.88
2022-11-23T12:01:35.591Z,3.10
2022-11-23T12:04:08.204Z,2.75
2022-11-23T12:06:40.126Z,3.20
2022-11-23T12:09:11.792Z,3.28
2022-11-23T12:11:40.138Z,3.25
2022-11-23T12:14:13.522Z,3.60
2022-11-23T12:17:16.888Z,3.90
2022-11-23T12:19:45.833Z,3.30
2022-11-23T12:22:40.057Z,3.78
2022-11-23T12:25:21.306Z,3.53
2022-11-23T12:28:01.587Z,3.53
2022-11-23T12:30:36.834Z,4.53
2022-11-23T12:33:26.137Z,3.72
2022-11-23T12:36:09.103Z,4.38
2022-11-23T12:38:46.507Z,3.20
2022-11-23T12:41:23.852Z,4.25
2022-11-23T12:44:07.669Z,3.88
2022-11-23T12:46:43.270Z,3.78
2022-11-23T12:49:24.133Z,4.45
2022-11-23T12:51:58.847Z,4.22
2022-11-23T12:54:41.160Z,4.45
2022-11-23T12:57:15.273Z,4.13
2022-11-23T12:59:51.247Z,4.82
2022-11-23T13:03:09.116Z,4.78
2022-11-23T13:06:14.629Z,5.00
2022-11-23T13:09:01.266Z,4.70
2022-11-23T13:11:43.255Z,5.10
2022-11-23T13:14:20.839Z,4.95
2022-11-23T13:17:11.844Z,5.25
2022-11-23T13:19:54.907Z,5.13
2022-11-23T13:22:23.713Z,5.45
2022-11-23T13:27:44.635Z,5.07
2022-11-23T13:30:51.961Z,5.32
2022-11-23T13:33:37.455Z,5.80
2022-11-23T13:36:12.631Z,5.35
2022-11-23T13:38:43.790Z,5.53
2022-11-23T13:41:58.007Z,5.75
2022-11-23T13:44:28.386Z,5.97
2022-11-23T13:47:08.523Z,5.90
2022-11-23T13:49:43.203Z,5.60
2022-11-23T13:52:26.406Z,5.60
2022-11-23T13:55:07.399Z,5.78
2022-11-23T13:57:37.021Z,5.70
2022-11-23T14:00:41.430Z,5.05
2022-11-23T14:03:50.992Z,5.57
2022-11-23T14:06:34.382Z,5.57
2022-11-23T14:09:06.975Z,6.32
2022-11-23T14:11:40.051Z,5.70
2022-11-23T14:14:19.073Z,6.15
2022-11-23T14:17:15.334Z,6.55
2022-11-23T14:20:05.065Z,5.97
2022-11-23T14:22:48.722Z,6.05
2022-11-23T14:25:27.002Z,6.13
2022-11-23T14:28:06.286Z,6.50
2022-11-23T14:30:54.914Z,7.28
2022-11-23T14:33:30.379Z,6.10
2022-11-23T14:36:06.344Z,6.45
2022-11-23T14:38:48.715Z,7.32
2022-11-23T14:41:19.287Z,7.38
2022-11-23T14:43:47.852Z,6.80
2022-11-23T14:46:19.629Z,7.45
2022-11-23T14:48:47.700Z,7.75
2022-11-23T14:51:18.978Z,8.07
2022-11-23T14:53:50.218Z,7.93
2022-11-23T14:56:29.513Z,8.73
2022-11-23T14:59:01.722Z,8.10
2022-11-23T15:01:29.247Z,7.28
2022-11-23T15:03:57.477Z,8.00
2022-11-23T15:06:29.284Z,8.00
2022-11-23T15:09:14.953Z,7.47
2022-11-23T15:11:51.285Z,8.15
2022-11-23T15:14:19.983Z,7.90
2022-11-23T15:19:19.093Z,7.35
2022-11-23T15:21:49.476Z,8.15
2022-11-23T15:24:25.661Z,8.57
2022-11-23T15:26:53.365Z,8.25
2022-11-23T15:29:40.449Z,7.80
2022-11-23T15:32:34.909Z,7.63
2022-11-23T15:35:07.214Z,8.57
2022-11-23T15:37:45.909Z,8.77
2022-11-23T15:40:16.531Z,9.95
2022-11-23T15:42:49.969Z,10.95
2022-11-23T15:45:58.937Z,12.13
2022-11-23T15:48:29.768Z,15.30
2022-11-23T15:50:58.305Z,16.38
2022-11-23T15:53:27.313Z,16.25
2022-11-23T15:56:00.534Z,16.73
2022-11-23T15:58:28.654Z,16.63
2022-11-23T16:01:06.828Z,17.42
2022-11-23T16:03:40.196Z,16.63
2022-11-23T16:06:25.525Z,17.55
2022-11-23T16:08:52.584Z,16.60
2022-11-23T16:11:30.956Z,16.05
2022-11-23T16:14:18.624Z,16.02
2022-11-23T16:16:47.503Z,13.77
2022-11-23T16:19:24.191Z,13.45
2022-11-23T16:22:01.739Z,13.38
2022-11-23T16:24:31.689Z,14.23
2022-11-23T16:27:01.202Z,13.73
2022-11-23T16:32:00.656Z,13.05
2022-11-23T16:34:27.926Z,15.82
2022-11-23T16:36:55.900Z,14.25
2022-11-23T16:39:24.033Z,13.95
2022-11-23T16:41:51.765Z,13.82
2022-11-23T16:44:20.259Z,14.48
2022-11-23T16:46:47.921Z,10.98
2022-11-23T16:49:18.019Z,12.07
2022-11-23T16:51:45.916Z,12.88
2022-11-23T16:54:15.233Z,13.20
2022-11-23T16:56:45.044Z,13.25
2022-11-23T16:59:16.983Z,13.35
2022-11-23T17:01:47.643Z,13.93
2022-11-23T17:04:17.154Z,13.05
2022-11-23T17:06:44.579Z,13.93
2022-11-23T17:09:11.621Z,11.80
2022-11-23T17:11:41.291Z,11.98
2022-11-23T17:14:18.144Z,11.02
2022-11-23T17:16:47.858Z,11.68
2022-11-23T17:19:17.682Z,11.23
2022-11-23T17:21:46.680Z,10.27
2022-11-23T17:24:14.179Z,12.20
2022-11-23T17:26:44.743Z,11.05
2022-11-23T17:29:14.149Z,10.73
2022-11-23T17:31:43.501Z,8.93
2022-11-23T17:34:12.669Z,8.88
2022-11-23T17:36:40.630Z,9.02
2022-11-23T17:39:09.663Z,10.05
2022-11-23T17:41:37.183Z,9.65
2022-11-23T17:44:04.603Z,8.82
2022-11-23T17:46:33.496Z,9.73
2022-11-23T17:49:02.505Z,10.23
2022-11-23T17:51:31.305Z,10.82
2022-11-23T17:53:58.443Z,9.20
2022-11-23T17:56:26.318Z,9.98
2022-11-23T17:58:53.560Z,9.38
2022-11-23T18:01:22.233Z,9.95
2022-11-23T18:03:49.651Z,9.32
2022-11-23T18:06:19.669Z,9.98
2022-11-23T18:08:49.675Z,9.48
2022-11-23T18:11:17.399Z,9.27
2022-11-23T18:13:44.576Z,8.70
2022-11-23T18:16:12.133Z,8.57
2022-11-23T18:18:39.226Z,9.32
2022-11-23T18:21:07.399Z,9.00
2022-11-23T18:23:34.413Z,8.00
2022-11-23T18:26:05.596Z,9.25
2022-11-23T18:28:32.476Z,8.70
2022-11-23T18:30:59.749Z,8.73
2022-11-23T18:33:27.133Z,9.05
2022-11-23T18:35:54.519Z,9.60
2022-11-23T18:38:21.363Z,9.43
2022-11-23T18:40:48.687Z,9.00
2022-11-23T18:43:17.238Z,9.32
2022-11-23T18:45:44.891Z,8.65
2022-11-23T18:48:13.136Z,7.78
2022-11-23T18:50:40.781Z,7.70
2022-11-23T18:53:07.662Z,7.75
2022-11-23T18:55:35.437Z,7.82
2022-11-23T18:58:02.364Z,7.45
2022-11-23T19:00:30.934Z,7.25
2022-11-23T19:02:59.629Z,7.03
2022-11-23T19:07:57.481Z,5.88
2022-11-23T19:10:24.749Z,7.25
2022-11-23T19:12:52.374Z,7.13
2022-11-23T19:15:19.675Z,6.35
2022-11-23T19:17:49.106Z,6.55
2022-11-23T19:20:18.510Z,6.15
2022-11-23T19:25:13.067Z,6.40
2022-11-23T19:27:40.624Z,5.32
2022-11-23T19:30:09.162Z,5.43
2022-11-23T19:32:36.743Z,5.20
2022-11-23T19:35:06.245Z,5.65
2022-11-23T19:37:35.002Z,4.63
2022-11-23T19:40:02.425Z,5.25
2022-11-23T19:42:29.441Z,5.05
2022-11-23T19:44:56.712Z,4.95
2022-11-23T19:47:23.566Z,4.57
2022-11-23T19:49:50.854Z,4.85
2022-11-23T19:52:19.090Z,4.68
2022-11-23T19:54:46.755Z,4.10
2022-11-23T19:57:13.652Z,3.72
2022-11-23T19:59:40.965Z,3.80
2022-11-23T20:02:10.709Z,3.60
2022-11-23T20:04:38.064Z,3.85
2022-11-23T20:07:05.023Z,4.00
2022-11-23T20:09:33.856Z,4.07
2022-11-23T20:12:00.797Z,3.65
2022-11-23T20:14:28.012Z,4.72
2022-11-23T20:16:55.924Z,5.03
2022-11-23T20:19:23.127Z,4.40
2022-11-23T20:21:50.096Z,4.45
2022-11-23T20:24:17.373Z,4.15
2022-11-23T20:26:45.708Z,3.78
2022-11-23T20:29:14.166Z,4.35
2022-11-23T20:31:41.225Z,4.17
2022-11-23T20:34:11.720Z,3.97
2022-11-23T20:36:41.303Z,3.85
2022-11-23T20:39:10.922Z,4.00
2022-11-23T20:41:38.137Z,3.38
2022-11-23T20:44:11.492Z,2.95
2022-11-23T20:47:01.806Z,3.53
2022-11-23T20:49:26.671Z,3.33
2022-11-23T20:51:53.629Z,3.83
2022-11-23T20:54:20.965Z,3.28
2022-11-23T20:56:47.904Z,3.33
2022-11-23T20:59:16.109Z,3.15
2022-11-23T21:01:43.369Z,3.03
2022-11-23T21:04:10.555Z,3.13
2022-11-23T21:06:40.212Z,3.67
2022-11-23T21:09:09.683Z,3.35
2022-11-23T21:11:55.969Z,3.20
2022-11-23T21:14:27.410Z,3.53
2022-11-23T21:16:57.096Z,3.70
2022-11-23T21:19:26.387Z,6.45
2022-11-23T21:21:54.210Z,5.78
2022-11-23T21:24:22.813Z,4.05
2022-11-23T21:26:52.826Z,3.45
2022-11-23T21:29:20.021Z,3.35
2022-11-23T21:31:49.616Z,3.35
2022-11-23T21:34:20.100Z,3.50
2022-11-23T21:36:48.186Z,3.60
2022-11-23T21:39:15.650Z,3.58
2022-11-23T21:41:43.605Z,3.30
2022-11-23T21:44:11.275Z,3.28
2022-11-23T21:46:41.857Z,3.63
2022-11-23T21:49:11.542Z,3.53
2022-11-23T21:51:39.050Z,3.65
2022-11-23T21:54:09.823Z,3.95
2022-11-23T21:56:37.612Z,3.72
2022-11-23T21:59:04.807Z,3.40
2022-11-23T22:01:33.934Z,2.80
2022-11-23T22:04:02.559Z,3.40
2022-11-23T22:06:31.611Z,3.22
2022-11-23T22:09:03.594Z,3.30
2022-11-23T22:11:32.868Z,3.20
2022-11-23T22:14:01.413Z,3.42
2022-11-23T22:16:31.097Z,3.53
2022-11-23T22:18:59.087Z,3.53
2022-11-23T22:21:29.187Z,3.40
2022-11-23T22:23:58.759Z,3.70
2022-11-23T22:26:27.696Z,3.53
2022-11-23T22:28:56.206Z,4.03
2022-11-23T22:31:25.559Z,3.13
2022-11-23T22:36:22.011Z,3.58
2022-11-23T22:38:58.037Z,3.30
2022-11-23T22:41:31.047Z,3.40
2022-11-23T22:43:58.031Z,3.53
2022-11-23T22:46:25.787Z,3.88
2022-11-23T22:48:53.634Z,3.35
2022-11-23T22:51:22.993Z,3.83
2022-11-23T22:56:25.388Z,3.80
2022-11-23T22:58:53.783Z,3.90
2022-11-23T23:01:23.127Z,4.20
2022-11-23T23:06:21.892Z,5.07
2022-11-23T23:08:53.360Z,6.47
2022-11-23T23:11:21.239Z,7.75
2022-11-23T23:13:48.510Z,8.57
2022-11-23T23:16:17.203Z,9.43
2022-11-23T23:18:44.405Z,7.57
2022-11-23T23:21:14.475Z,7.57
2022-11-23T23:23:44.080Z,6.95
2022-11-23T23:26:12.477Z,6.90
2022-11-23T23:28:39.504Z,6.20
2022-11-23T23:31:08.677Z,5.85
2022-11-23T23:33:37.818Z,5.43
2022-11-23T23:36:07.144Z,5.05
2022-11-23T23:38:34.237Z,5.43
2022-11-23T23:41:01.541Z,6.22
2022-11-23T23:43:28.820Z,6.00
2022-11-23T23:45:58.972Z,5.47
2022-11-23T23:48:28.616Z,6.65
2022-11-23T23:50:57.266Z,7.22
2022-11-23T23:53:24.379Z,5.33
2022-11-23T23:55:56.333Z,5.47
2022-11-23T23:58:23.359Z,4.85
